sensor_id;sensor_type;location;lat;lon;timestamp;temperature;humidity
31046;DHT22;17711;54.018;9.300;2022-08-19T00:01:57;21.10;99.90
31046;DHT22;17711;54.018;9.300;2022-08-19T00:04:28;21.10;99.90
31046;DHT22;17711;54.018;9.300;2022-08-19T00:06:59;21.00;99.90
31046;DHT22;17711;54.018;9.300;2022-08-19T00:09:28;21.00;99.90
31046;DHT22;17711;54.018;9.300;2022-08-19T00:11:57;21.00;99.90
31046;DHT22;17711;54.018;9.300;2022-08-19T00:14:27;21.00;99.90
31046;DHT22;17711;54.018;9.300;2022-08-19T00:16:59;21.00;99.90
31046;DHT22;17711;54.018;9.300;2022-08-19T00:19:29;21.00;99.90
31046;DHT22;17711;54.018;9.300;2022-08-19T00:21:59;21.00;99.90
31046;DHT22;17711;54.018;9.300;2022-08-19T00:24:29;21.00;99.90
31046;DHT22;17711;54.018;9.300;2022-08-19T00:26:58;21.00;99.90
31046;DHT22;17711;54.018;9.300;2022-08-19T00:29:48;21.10;99.90
31046;DHT22;17711;54.018;9.300;2022-08-19T00:32:19;21.00;99.90
31046;DHT22;17711;54.018;9.300;2022-08-19T00:34:48;21.00;99.90
31046;DHT22;17711;54.018;9.300;2022-08-19T00:37:19;21.00;99.90
31046;DHT22;17711;54.018;9.300;2022-08-19T00:39:49;21.00;99.90
31046;DHT22;17711;54.018;9.300;2022-08-19T00:42:20;20.90;99.90
31046;DHT22;17711;54.018;9.300;2022-08-19T00:44:49;21.00;99.90
31046;DHT22;17711;54.018;9.300;2022-08-19T00:47:18;21.00;99.90
31046;DHT22;17711;54.018;9.300;2022-08-19T00:49:49;21.00;99.90
31046;DHT22;17711;54.018;9.300;2022-08-19T00:52:23;21.00;99.90
31046;DHT22;17711;54.018;9.300;2022-08-19T00:54:54;20.90;99.90
31046;DHT22;17711;54.018;9.300;2022-08-19T00:57:28;20.90;99.90
31046;DHT22;17711;54.018;9.300;2022-08-19T00:59:58;20.90;99.90
31046;DHT22;17711;54.018;9.300;2022-08-19T01:02:30;20.90;99.90
31046;DHT22;17711;54.018;9.300;2022-08-19T01:05:03;21.00;99.90
31046;DHT22;17711;54.018;9.300;2022-08-19T01:07:34;20.90;99.90
31046;DHT22;17711;54.018;9.300;2022-08-19T01:10:06;20.90;99.90
31046;DHT22;17711;54.018;9.300;2022-08-19T01:12:36;20.90;99.90
31046;DHT22;17711;54.018;9.300;2022-08-19T01:15:07;20.90;99.90
31046;DHT22;17711;54.018;9.300;2022-08-19T01:17:38;20.90;99.90
31046;DHT22;17711;54.018;9.300;2022-08-19T01:20:12;20.90;99.90
31046;DHT22;17711;54.018;9.300;2022-08-19T01:22:46;20.80;99.90
31046;DHT22;17711;54.018;9.300;2022-08-19T01:25:15;20.80;99.90
31046;DHT22;17711;54.018;9.300;2022-08-19T01:27:46;20.80;99.90
31046;DHT22;17711;54.018;9.300;2022-08-19T01:30:21;20.80;99.90
31046;DHT22;17711;54.018;9.300;2022-08-19T01:32:51;20.80;99.90
31046;DHT22;17711;54.018;9.300;2022-08-19T01:35:22;20.80;99.90
31046;DHT22;17711;54.018;9.300;2022-08-19T01:37:54;20.70;99.90
31046;DHT22;17711;54.018;9.300;2022-08-19T01:40:28;20.80;99.90
31046;DHT22;17711;54.018;9.300;2022-08-19T01:42:58;20.80;99.90
31046;DHT22;17711;54.018;9.300;2022-08-19T01:45:29;20.80;99.90
31046;DHT22;17711;54.018;9.300;2022-08-19T01:47:58;20.80;99.90
31046;DHT22;17711;54.018;9.300;2022-08-19T01:50:29;20.80;99.90
31046;DHT22;17711;54.018;9.300;2022-08-19T01:53:00;20.80;99.90
31046;DHT22;17711;54.018;9.300;2022-08-19T01:55:35;20.80;99.90
31046;DHT22;17711;54.018;9.300;2022-08-19T01:58:10;20.70;99.90
31046;DHT22;17711;54.018;9.300;2022-08-19T02:00:39;20.70;99.90
31046;DHT22;17711;54.018;9.300;2022-08-19T02:03:08;20.70;99.90
31046;DHT22;17711;54.018;9.300;2022-08-19T02:05:39;20.70;99.90
31046;DHT22;17711;54.018;9.300;2022-08-19T02:08:10;20.70;99.90
31046;DHT22;17711;54.018;9.300;2022-08-19T02:10:42;20.70;99.90
31046;DHT22;17711;54.018;9.300;2022-08-19T02:13:11;20.70;99.90
31046;DHT22;17711;54.018;9.300;2022-08-19T02:15:46;20.70;99.90
31046;DHT22;17711;54.018;9.300;2022-08-19T02:18:16;20.70;99.90
31046;DHT22;17711;54.018;9.300;2022-08-19T02:20:45;20.70;99.90
31046;DHT22;17711;54.018;9.300;2022-08-19T02:23:16;20.70;99.90
31046;DHT22;17711;54.018;9.300;2022-08-19T02:25:47;20.70;99.90
31046;DHT22;17711;54.018;9.300;2022-08-19T02:28:17;20.70;99.90
31046;DHT22;17711;54.018;9.300;2022-08-19T02:30:47;20.70;99.90
31046;DHT22;17711;54.018;9.300;2022-08-19T02:33:16;20.60;99.90
31046;DHT22;17711;54.018;9.300;2022-08-19T02:35:46;20.60;99.90
31046;DHT22;17711;54.018;9.300;2022-08-19T02:38:16;20.70;99.90
31046;DHT22;17711;54.018;9.300;2022-08-19T02:40:55;20.70;99.90
31046;DHT22;17711;54.018;9.300;2022-08-19T02:43:24;20.60;99.90
31046;DHT22;17711;54.018;9.300;2022-08-19T02:45:54;20.70;99.90
31046;DHT22;17711;54.018;9.300;2022-08-19T02:48:24;20.70;99.90
31046;DHT22;17711;54.018;9.300;2022-08-19T02:50:53;20.70;99.90
31046;DHT22;17711;54.018;9.300;2022-08-19T02:53:26;20.70;99.90
31046;DHT22;17711;54.018;9.300;2022-08-19T02:55:55;20.70;99.90
31046;DHT22;17711;54.018;9.300;2022-08-19T02:58:24;20.70;99.90
31046;DHT22;17711;54.018;9.300;2022-08-19T03:00:55;20.70;99.90
31046;DHT22;17711;54.018;9.300;2022-08-19T03:03:25;20.70;99.90
31046;DHT22;17711;54.018;9.300;2022-08-19T03:06:07;20.70;99.90
31046;DHT22;17711;54.018;9.300;2022-08-19T03:08:39;20.60;99.90
31046;DHT22;17711;54.018;9.300;2022-08-19T03:11:13;20.60;99.90
31046;DHT22;17711;54.018;9.300;2022-08-19T03:13:42;20.60;99.90
31046;DHT22;17711;54.018;9.300;2022-08-19T03:16:12;20.60;99.90
31046;DHT22;17711;54.018;9.300;2022-08-19T03:18:41;20.60;99.90
31046;DHT22;17711;54.018;9.300;2022-08-19T03:21:15;20.70;99.90
31046;DHT22;17711;54.018;9.300;2022-08-19T03:23:45;20.70;99.90
31046;DHT22;17711;54.018;9.300;2022-08-19T03:26:14;20.70;99.90
31046;DHT22;17711;54.018;9.300;2022-08-19T03:28:45;20.60;99.90
31046;DHT22;17711;54.018;9.300;2022-08-19T03:31:26;20.60;99.90
31046;DHT22;17711;54.018;9.300;2022-08-19T03:34:18;20.70;99.90
31046;DHT22;17711;54.018;9.300;2022-08-19T03:36:47;20.70;99.90
31046;DHT22;17711;54.018;9.300;2022-08-19T03:39:18;20.60;99.90
31046;DHT22;17711;54.018;9.300;2022-08-19T03:41:48;20.70;99.90
31046;DHT22;17711;54.018;9.300;2022-08-19T03:44:37;20.60;99.90
31046;DHT22;17711;54.018;9.300;2022-08-19T03:47:06;20.60;99.90
31046;DHT22;17711;54.018;9.300;2022-08-19T03:49:35;20.60;99.90
31046;DHT22;17711;54.018;9.300;2022-08-19T03:52:04;20.60;99.90
31046;DHT22;17711;54.018;9.300;2022-08-19T03:54:36;20.60;99.90
31046;DHT22;17711;54.018;9.300;2022-08-19T03:57:06;20.60;99.90
31046;DHT22;17711;54.018;9.300;2022-08-19T03:59:38;20.60;99.90
31046;DHT22;17711;54.018;9.300;2022-08-19T04:02:11;20.70;99.90
31046;DHT22;17711;54.018;9.300;2022-08-19T04:04:42;20.60;99.90
31046;DHT22;17711;54.018;9.300;2022-08-19T04:07:15;20.60;99.90
31046;DHT22;17711;54.018;9.300;2022-08-19T04:09:50;20.70;99.90
31046;DHT22;17711;54.018;9.300;2022-08-19T04:12:19;20.70;99.90
31046;DHT22;17711;54.018;9.300;2022-08-19T04:14:48;20.70;99.90
31046;DHT22;17711;54.018;9.300;2022-08-19T04:17:17;20.70;99.90
31046;DHT22;17711;54.018;9.300;2022-08-19T04:19:46;20.70;99.90
31046;DHT22;17711;54.018;9.300;2022-08-19T04:22:15;20.70;99.90
31046;DHT22;17711;54.018;9.300;2022-08-19T04:24:45;20.70;99.90
31046;DHT22;17711;54.018;9.300;2022-08-19T04:27:15;20.70;99.90
31046;DHT22;17711;54.018;9.300;2022-08-19T04:29:44;20.70;99.90
31046;DHT22;17711;54.018;9.300;2022-08-19T04:32:13;20.70;99.90
31046;DHT22;17711;54.018;9.300;2022-08-19T04:34:43;20.70;99.90
31046;DHT22;17711;54.018;9.300;2022-08-19T04:37:31;20.70;99.90
31046;DHT22;17711;54.018;9.300;2022-08-19T04:40:04;20.70;99.90
31046;DHT22;17711;54.018;9.300;2022-08-19T04:42:52;20.60;99.90
31046;DHT22;17711;54.018;9.300;2022-08-19T04:45:21;20.70;99.90
31046;DHT22;17711;54.018;9.300;2022-08-19T04:47:54;20.60;99.90
31046;DHT22;17711;54.018;9.300;2022-08-19T04:50:44;20.60;99.90
31046;DHT22;17711;54.018;9.300;2022-08-19T04:53:13;20.60;99.90
31046;DHT22;17711;54.018;9.300;2022-08-19T04:55:42;20.60;99.90
31046;DHT22;17711;54.018;9.300;2022-08-19T04:58:13;20.60;99.90
31046;DHT22;17711;54.018;9.300;2022-08-19T05:00:43;20.60;99.90
31046;DHT22;17711;54.018;9.300;2022-08-19T05:03:12;20.60;99.90
31046;DHT22;17711;54.018;9.300;2022-08-19T05:05:45;20.60;99.90
31046;DHT22;17711;54.018;9.300;2022-08-19T05:08:18;20.60;99.90
31046;DHT22;17711;54.018;9.300;2022-08-19T05:10:57;20.60;99.90
31046;DHT22;17711;54.018;9.300;2022-08-19T05:13:28;20.60;99.90
31046;DHT22;17711;54.018;9.300;2022-08-19T05:15:58;20.60;99.90
31046;DHT22;17711;54.018;9.300;2022-08-19T05:18:27;20.70;99.90
31046;DHT22;17711;54.018;9.300;2022-08-19T05:21:17;20.70;99.90
31046;DHT22;17711;54.018;9.300;2022-08-19T05:24:06;20.80;99.90
31046;DHT22;17711;54.018;9.300;2022-08-19T05:26:36;20.80;99.90
31046;DHT22;17711;54.018;9.300;2022-08-19T05:29:07;20.80;99.90
31046;DHT22;17711;54.018;9.300;2022-08-19T05:31:37;20.80;99.90
31046;DHT22;17711;54.018;9.300;2022-08-19T05:34:08;20.90;99.90
31046;DHT22;17711;54.018;9.300;2022-08-19T05:36:47;20.90;99.90
31046;DHT22;17711;54.018;9.300;2022-08-19T05:39:19;20.90;99.90
31046;DHT22;17711;54.018;9.300;2022-08-19T05:41:51;20.90;99.90
31046;DHT22;17711;54.018;9.300;2022-08-19T05:44:24;20.90;99.90
31046;DHT22;17711;54.018;9.300;2022-08-19T05:46:53;20.90;99.90
31046;DHT22;17711;54.018;9.300;2022-08-19T05:49:23;21.00;99.90
31046;DHT22;17711;54.018;9.300;2022-08-19T05:51:53;21.00;99.90
31046;DHT22;17711;54.018;9.300;2022-08-19T05:54:23;21.10;99.90
31046;DHT22;17711;54.018;9.300;2022-08-19T05:56:52;21.00;99.90
31046;DHT22;17711;54.018;9.300;2022-08-19T05:59:23;21.00;99.90
31046;DHT22;17711;54.018;9.300;2022-08-19T06:01:53;21.00;99.90
31046;DHT22;17711;54.018;9.300;2022-08-19T06:04:23;21.00;99.90
31046;DHT22;17711;54.018;9.300;2022-08-19T06:06:53;21.10;99.90
31046;DHT22;17711;54.018;9.300;2022-08-19T06:09:23;21.10;99.90
31046;DHT22;17711;54.018;9.300;2022-08-19T06:11:54;21.20;99.90
31046;DHT22;17711;54.018;9.300;2022-08-19T06:14:28;21.30;99.90
31046;DHT22;17711;54.018;9.300;2022-08-19T06:16:59;21.30;99.90
31046;DHT22;17711;54.018;9.300;2022-08-19T06:19:33;21.20;99.90
31046;DHT22;17711;54.018;9.300;2022-08-19T06:22:07;21.20;99.90
31046;DHT22;17711;54.018;9.300;2022-08-19T06:24:36;21.20;99.90
31046;DHT22;17711;54.018;9.300;2022-08-19T06:27:05;21.20;99.90
31046;DHT22;17711;54.018;9.300;2022-08-19T06:29:36;21.10;99.90
31046;DHT22;17711;54.018;9.300;2022-08-19T06:32:05;21.10;99.90
31046;DHT22;17711;54.018;9.300;2022-08-19T06:34:34;21.10;99.90
31046;DHT22;17711;54.018;9.300;2022-08-19T06:37:03;21.10;99.90
31046;DHT22;17711;54.018;9.300;2022-08-19T06:39:37;21.10;99.90
31046;DHT22;17711;54.018;9.300;2022-08-19T06:42:06;21.00;99.90
31046;DHT22;17711;54.018;9.300;2022-08-19T06:44:41;21.00;99.90
31046;DHT22;17711;54.018;9.300;2022-08-19T06:47:17;21.00;99.90
31046;DHT22;17711;54.018;9.300;2022-08-19T06:49:54;21.00;99.90
31046;DHT22;17711;54.018;9.300;2022-08-19T06:52:27;21.00;99.90
31046;DHT22;17711;54.018;9.300;2022-08-19T06:54:56;21.00;99.90
31046;DHT22;17711;54.018;9.300;2022-08-19T06:57:26;20.90;99.90
31046;DHT22;17711;54.018;9.300;2022-08-19T07:00:01;21.00;99.90
31046;DHT22;17711;54.018;9.300;2022-08-19T07:02:30;21.00;99.90
31046;DHT22;17711;54.018;9.300;2022-08-19T07:04:59;21.00;99.90
31046;DHT22;17711;54.018;9.300;2022-08-19T07:07:32;21.00;99.90
31046;DHT22;17711;54.018;9.300;2022-08-19T07:10:03;21.00;99.90
31046;DHT22;17711;54.018;9.300;2022-08-19T07:12:33;21.00;99.90
31046;DHT22;17711;54.018;9.300;2022-08-19T07:15:07;21.00;99.90
31046;DHT22;17711;54.018;9.300;2022-08-19T07:17:38;21.00;99.90
31046;DHT22;17711;54.018;9.300;2022-08-19T07:20:09;21.00;99.90
31046;DHT22;17711;54.018;9.300;2022-08-19T07:22:38;21.00;99.90
31046;DHT22;17711;54.018;9.300;2022-08-19T07:25:09;21.00;99.90
31046;DHT22;17711;54.018;9.300;2022-08-19T07:27:37;21.00;99.90
31046;DHT22;17711;54.018;9.300;2022-08-19T07:30:09;21.00;99.90
31046;DHT22;17711;54.018;9.300;2022-08-19T07:32:41;21.00;99.90
31046;DHT22;17711;54.018;9.300;2022-08-19T07:35:10;21.00;99.90
31046;DHT22;17711;54.018;9.300;2022-08-19T07:37:39;21.10;99.90
31046;DHT22;17711;54.018;9.300;2022-08-19T07:40:12;21.20;99.90
31046;DHT22;17711;54.018;9.300;2022-08-19T07:42:45;21.30;99.90
31046;DHT22;17711;54.018;9.300;2022-08-19T07:45:17;21.30;99.90
31046;DHT22;17711;54.018;9.300;2022-08-19T07:47:47;21.40;99.90
31046;DHT22;17711;54.018;9.300;2022-08-19T07:50:19;21.50;99.90
31046;DHT22;17711;54.018;9.300;2022-08-19T07:52:49;21.60;99.90
31046;DHT22;17711;54.018;9.300;2022-08-19T07:55:21;21.70;99.90
31046;DHT22;17711;54.018;9.300;2022-08-19T07:58:09;21.70;99.90
31046;DHT22;17711;54.018;9.300;2022-08-19T08:00:40;21.70;99.90
31046;DHT22;17711;54.018;9.300;2022-08-19T08:03:10;21.70;99.90
31046;DHT22;17711;54.018;9.300;2022-08-19T08:05:39;21.80;99.90
31046;DHT22;17711;54.018;9.300;2022-08-19T08:08:26;21.80;99.90
31046;DHT22;17711;54.018;9.300;2022-08-19T08:11:15;21.80;99.90
31046;DHT22;17711;54.018;9.300;2022-08-19T08:13:47;21.90;99.90
31046;DHT22;17711;54.018;9.300;2022-08-19T08:16:34;22.00;99.90
31046;DHT22;17711;54.018;9.300;2022-08-19T08:19:14;22.00;99.90
31046;DHT22;17711;54.018;9.300;2022-08-19T08:21:52;22.00;99.90
31046;DHT22;17711;54.018;9.300;2022-08-19T08:24:22;22.00;99.90
31046;DHT22;17711;54.018;9.300;2022-08-19T08:26:55;22.10;99.90
31046;DHT22;17711;54.018;9.300;2022-08-19T08:29:25;22.20;99.90
31046;DHT22;17711;54.018;9.300;2022-08-19T08:32:03;22.50;99.90
31046;DHT22;17711;54.018;9.300;2022-08-19T08:34:42;22.70;99.90
31046;DHT22;17711;54.018;9.300;2022-08-19T08:37:19;22.90;99.90
31046;DHT22;17711;54.018;9.300;2022-08-19T08:39:55;23.10;99.90
31046;DHT22;17711;54.018;9.300;2022-08-19T08:42:29;23.20;99.90
31046;DHT22;17711;54.018;9.300;2022-08-19T08:45:06;23.30;99.90
31046;DHT22;17711;54.018;9.300;2022-08-19T08:47:48;23.30;99.90
31046;DHT22;17711;54.018;9.300;2022-08-19T08:50:24;23.30;99.90
31046;DHT22;17711;54.018;9.300;2022-08-19T08:52:56;23.20;99.90
31046;DHT22;17711;54.018;9.300;2022-08-19T08:55:28;23.20;99.90
31046;DHT22;17711;54.018;9.300;2022-08-19T08:58:04;23.20;99.90
31046;DHT22;17711;54.018;9.300;2022-08-19T09:00:38;23.20;99.90
31046;DHT22;17711;54.018;9.300;2022-08-19T09:03:17;23.20;99.90
31046;DHT22;17711;54.018;9.300;2022-08-19T09:05:57;23.30;99.90
31046;DHT22;17711;54.018;9.300;2022-08-19T09:08:37;23.20;99.90
31046;DHT22;17711;54.018;9.300;2022-08-19T09:11:13;23.20;99.90
31046;DHT22;17711;54.018;9.300;2022-08-19T09:14:11;23.10;99.90
31046;DHT22;17711;54.018;9.300;2022-08-19T09:17:03;23.10;99.90
31046;DHT22;17711;54.018;9.300;2022-08-19T09:19:48;23.00;99.90
31046;DHT22;17711;54.018;9.300;2022-08-19T09:22:18;23.00;99.90
31046;DHT22;17711;54.018;9.300;2022-08-19T09:24:52;23.10;99.90
31046;DHT22;17711;54.018;9.300;2022-08-19T09:27:23;23.20;99.90
31046;DHT22;17711;54.018;9.300;2022-08-19T09:30:14;23.30;99.90
31046;DHT22;17711;54.018;9.300;2022-08-19T09:32:44;23.40;99.90
31046;DHT22;17711;54.018;9.300;2022-08-19T09:35:21;23.40;99.90
31046;DHT22;17711;54.018;9.300;2022-08-19T09:37:51;23.60;99.90
31046;DHT22;17711;54.018;9.300;2022-08-19T09:40:25;23.70;99.90
31046;DHT22;17711;54.018;9.300;2022-08-19T09:42:57;23.60;99.90
31046;DHT22;17711;54.018;9.300;2022-08-19T09:45:39;23.60;99.90
31046;DHT22;17711;54.018;9.300;2022-08-19T09:48:08;23.50;99.90
31046;DHT22;17711;54.018;9.300;2022-08-19T09:50:46;23.70;99.90
31046;DHT22;17711;54.018;9.300;2022-08-19T09:53:18;24.30;99.90
31046;DHT22;17711;54.018;9.300;2022-08-19T09:55:52;25.30;99.90
31046;DHT22;17711;54.018;9.300;2022-08-19T09:58:23;26.10;99.90
31046;DHT22;17711;54.018;9.300;2022-08-19T10:00:55;26.50;99.90
31046;DHT22;17711;54.018;9.300;2022-08-19T10:03:25;27.00;99.90
31046;DHT22;17711;54.018;9.300;2022-08-19T10:05:59;28.80;99.90
31046;DHT22;17711;54.018;9.300;2022-08-19T10:08:29;29.40;99.90
31046;DHT22;17711;54.018;9.300;2022-08-19T10:10:58;28.90;99.90
31046;DHT22;17711;54.018;9.300;2022-08-19T10:13:48;28.40;99.90
31046;DHT22;17711;54.018;9.300;2022-08-19T10:16:19;27.80;99.90
31046;DHT22;17711;54.018;9.300;2022-08-19T10:18:52;27.40;99.90
31046;DHT22;17711;54.018;9.300;2022-08-19T10:21:28;27.00;99.90
31046;DHT22;17711;54.018;9.300;2022-08-19T10:24:00;26.80;99.90
31046;DHT22;17711;54.018;9.300;2022-08-19T10:26:32;26.60;99.90
31046;DHT22;17711;54.018;9.300;2022-08-19T10:29:02;26.30;99.90
31046;DHT22;17711;54.018;9.300;2022-08-19T10:31:35;26.20;99.90
31046;DHT22;17711;54.018;9.300;2022-08-19T10:34:24;26.10;99.90
31046;DHT22;17711;54.018;9.300;2022-08-19T10:36:56;25.90;99.90
31046;DHT22;17711;54.018;9.300;2022-08-19T10:39:28;25.70;99.90
31046;DHT22;17711;54.018;9.300;2022-08-19T10:42:10;25.50;99.90
31046;DHT22;17711;54.018;9.300;2022-08-19T10:44:40;25.30;99.90
31046;DHT22;17711;54.018;9.300;2022-08-19T10:47:09;25.00;99.90
31046;DHT22;17711;54.018;9.300;2022-08-19T10:49:51;24.80;99.90
31046;DHT22;17711;54.018;9.300;2022-08-19T10:52:40;24.60;99.90
31046;DHT22;17711;54.018;9.300;2022-08-19T10:55:18;24.60;99.90
31046;DHT22;17711;54.018;9.300;2022-08-19T10:58:09;24.50;99.90
31046;DHT22;17711;54.018;9.300;2022-08-19T11:00:38;24.50;99.90
31046;DHT22;17711;54.018;9.300;2022-08-19T11:03:09;24.40;99.90
31046;DHT22;17711;54.018;9.300;2022-08-19T11:05:39;24.40;99.90
31046;DHT22;17711;54.018;9.300;2022-08-19T11:08:10;24.20;99.90
31046;DHT22;17711;54.018;9.300;2022-08-19T11:10:48;24.20;99.90
31046;DHT22;17711;54.018;9.300;2022-08-19T11:13:17;24.30;99.90
31046;DHT22;17711;54.018;9.300;2022-08-19T11:15:46;24.30;99.90
31046;DHT22;17711;54.018;9.300;2022-08-19T11:18:15;24.30;99.90
31046;DHT22;17711;54.018;9.300;2022-08-19T11:20:45;24.40;99.90
31046;DHT22;17711;54.018;9.300;2022-08-19T11:23:15;24.30;99.90
31046;DHT22;17711;54.018;9.300;2022-08-19T11:25:44;24.40;99.90
31046;DHT22;17711;54.018;9.300;2022-08-19T11:28:13;24.20;99.90
31046;DHT22;17711;54.018;9.300;2022-08-19T11:30:43;24.20;99.90
31046;DHT22;17711;54.018;9.300;2022-08-19T11:33:12;24.10;99.90
31046;DHT22;17711;54.018;9.300;2022-08-19T11:35:41;24.00;99.90
31046;DHT22;17711;54.018;9.300;2022-08-19T11:38:09;24.00;99.90
31046;DHT22;17711;54.018;9.300;2022-08-19T11:40:40;24.10;99.90
31046;DHT22;17711;54.018;9.300;2022-08-19T11:43:09;24.10;99.90
31046;DHT22;17711;54.018;9.300;2022-08-19T11:45:38;24.10;99.90
31046;DHT22;17711;54.018;9.300;2022-08-19T11:48:07;24.20;99.90
31046;DHT22;17711;54.018;9.300;2022-08-19T11:50:36;24.20;99.90
31046;DHT22;17711;54.018;9.300;2022-08-19T11:53:08;24.20;99.90
31046;DHT22;17711;54.018;9.300;2022-08-19T11:55:38;24.20;99.90
31046;DHT22;17711;54.018;9.300;2022-08-19T11:58:12;24.30;99.90
31046;DHT22;17711;54.018;9.300;2022-08-19T12:00:45;24.40;99.90
31046;DHT22;17711;54.018;9.300;2022-08-19T12:03:14;24.70;99.90
31046;DHT22;17711;54.018;9.300;2022-08-19T12:05:43;25.00;99.90
31046;DHT22;17711;54.018;9.300;2022-08-19T12:08:12;25.30;99.90
31046;DHT22;17711;54.018;9.300;2022-08-19T12:10:42;25.70;99.90
31046;DHT22;17711;54.018;9.300;2022-08-19T12:13:14;25.90;99.90
31046;DHT22;17711;54.018;9.300;2022-08-19T12:15:47;26.10;99.90
31046;DHT22;17711;54.018;9.300;2022-08-19T12:18:16;26.10;99.90
31046;DHT22;17711;54.018;9.300;2022-08-19T12:20:46;26.30;99.90
31046;DHT22;17711;54.018;9.300;2022-08-19T12:23:15;26.60;99.90
31046;DHT22;17711;54.018;9.300;2022-08-19T12:25:46;26.80;99.90
31046;DHT22;17711;54.018;9.300;2022-08-19T12:28:20;27.00;99.90
31046;DHT22;17711;54.018;9.300;2022-08-19T12:30:49;27.10;99.90
31046;DHT22;17711;54.018;9.300;2022-08-19T12:33:20;27.20;99.90
31046;DHT22;17711;54.018;9.300;2022-08-19T12:35:52;27.00;99.90
31046;DHT22;17711;54.018;9.300;2022-08-19T12:38:21;26.90;99.90
31046;DHT22;17711;54.018;9.300;2022-08-19T12:40:51;26.90;99.90
31046;DHT22;17711;54.018;9.300;2022-08-19T12:43:27;26.90;99.90
31046;DHT22;17711;54.018;9.300;2022-08-19T12:45:57;26.80;99.90
31046;DHT22;17711;54.018;9.300;2022-08-19T12:48:26;26.70;99.90
31046;DHT22;17711;54.018;9.300;2022-08-19T12:51:05;26.50;99.90
31046;DHT22;17711;54.018;9.300;2022-08-19T12:53:34;26.30;99.90
31046;DHT22;17711;54.018;9.300;2022-08-19T12:56:06;26.10;99.90
31046;DHT22;17711;54.018;9.300;2022-08-19T12:58:40;25.90;99.90
31046;DHT22;17711;54.018;9.300;2022-08-19T13:01:17;25.70;99.90
31046;DHT22;17711;54.018;9.300;2022-08-19T13:03:49;25.60;99.90
31046;DHT22;17711;54.018;9.300;2022-08-19T13:06:19;25.50;99.90
31046;DHT22;17711;54.018;9.300;2022-08-19T13:08:48;25.40;99.90
31046;DHT22;17711;54.018;9.300;2022-08-19T13:11:20;25.30;99.90
31046;DHT22;17711;54.018;9.300;2022-08-19T13:13:53;25.20;99.90
31046;DHT22;17711;54.018;9.300;2022-08-19T13:16:24;25.10;99.90
31046;DHT22;17711;54.018;9.300;2022-08-19T13:18:55;24.90;99.90
31046;DHT22;17711;54.018;9.300;2022-08-19T13:21:26;24.70;99.90
31046;DHT22;17711;54.018;9.300;2022-08-19T13:23:57;24.70;99.90
31046;DHT22;17711;54.018;9.300;2022-08-19T13:26:26;24.70;99.90
31046;DHT22;17711;54.018;9.300;2022-08-19T13:28:57;24.70;99.90
31046;DHT22;17711;54.018;9.300;2022-08-19T13:31:43;24.70;99.90
31046;DHT22;17711;54.018;9.300;2022-08-19T13:34:32;24.70;99.90
31046;DHT22;17711;54.018;9.300;2022-08-19T13:37:03;24.80;99.90
31046;DHT22;17711;54.018;9.300;2022-08-19T13:39:33;25.10;99.90
31046;DHT22;17711;54.018;9.300;2022-08-19T13:42:03;25.40;99.90
31046;DHT22;17711;54.018;9.300;2022-08-19T13:44:34;25.50;99.90
31046;DHT22;17711;54.018;9.300;2022-08-19T13:47:05;25.60;99.90
31046;DHT22;17711;54.018;9.300;2022-08-19T13:49:34;25.60;99.90
31046;DHT22;17711;54.018;9.300;2022-08-19T13:52:04;25.50;99.90
31046;DHT22;17711;54.018;9.300;2022-08-19T13:54:33;25.50;99.90
31046;DHT22;17711;54.018;9.300;2022-08-19T13:57:03;25.40;99.90
31046;DHT22;17711;54.018;9.300;2022-08-19T13:59:32;25.40;99.90
31046;DHT22;17711;54.018;9.300;2022-08-19T14:02:02;25.40;99.90
31046;DHT22;17711;54.018;9.300;2022-08-19T14:04:32;25.40;99.90
31046;DHT22;17711;54.018;9.300;2022-08-19T14:07:01;25.40;99.90
31046;DHT22;17711;54.018;9.300;2022-08-19T14:09:30;25.40;99.90
31046;DHT22;17711;54.018;9.300;2022-08-19T14:11:59;25.40;99.90
31046;DHT22;17711;54.018;9.300;2022-08-19T14:14:28;25.40;99.90
31046;DHT22;17711;54.018;9.300;2022-08-19T14:16:57;25.30;99.90
31046;DHT22;17711;54.018;9.300;2022-08-19T14:19:28;25.30;99.90
31046;DHT22;17711;54.018;9.300;2022-08-19T14:21:57;25.30;99.90
31046;DHT22;17711;54.018;9.300;2022-08-19T14:24:26;25.30;99.90
31046;DHT22;17711;54.018;9.300;2022-08-19T14:26:55;25.20;99.90
31046;DHT22;17711;54.018;9.300;2022-08-19T14:29:24;25.30;99.90
31046;DHT22;17711;54.018;9.300;2022-08-19T14:31:53;25.40;99.90
31046;DHT22;17711;54.018;9.300;2022-08-19T14:34:23;25.60;99.90
31046;DHT22;17711;54.018;9.300;2022-08-19T14:36:54;25.80;99.90
31046;DHT22;17711;54.018;9.300;2022-08-19T14:39:23;25.90;99.90
31046;DHT22;17711;54.018;9.300;2022-08-19T14:41:52;26.00;99.90
31046;DHT22;17711;54.018;9.300;2022-08-19T14:44:21;26.20;99.90
31046;DHT22;17711;54.018;9.300;2022-08-19T14:46:51;26.50;99.90
31046;DHT22;17711;54.018;9.300;2022-08-19T14:49:20;27.00;99.90
31046;DHT22;17711;54.018;9.300;2022-08-19T14:52:03;27.20;99.90
31046;DHT22;17711;54.018;9.300;2022-08-19T14:54:32;27.20;99.90
31046;DHT22;17711;54.018;9.300;2022-08-19T14:57:01;27.10;99.90
31046;DHT22;17711;54.018;9.300;2022-08-19T14:59:30;27.10;99.90
31046;DHT22;17711;54.018;9.300;2022-08-19T15:01:59;27.00;99.90
31046;DHT22;17711;54.018;9.300;2022-08-19T15:04:48;27.00;99.90
31046;DHT22;17711;54.018;9.300;2022-08-19T15:07:26;26.90;99.90
31046;DHT22;17711;54.018;9.300;2022-08-19T15:09:56;26.70;99.90
31046;DHT22;17711;54.018;9.300;2022-08-19T15:12:25;26.60;99.90
31046;DHT22;17711;54.018;9.300;2022-08-19T15:14:55;26.70;99.90
31046;DHT22;17711;54.018;9.300;2022-08-19T15:17:24;26.70;99.90
31046;DHT22;17711;54.018;9.300;2022-08-19T15:20:16;26.70;99.90
31046;DHT22;17711;54.018;9.300;2022-08-19T15:22:47;27.10;99.90
31046;DHT22;17711;54.018;9.300;2022-08-19T15:25:17;27.70;99.90
31046;DHT22;17711;54.018;9.300;2022-08-19T15:27:47;28.20;99.90
31046;DHT22;17711;54.018;9.300;2022-08-19T15:30:20;28.70;99.90
31046;DHT22;17711;54.018;9.300;2022-08-19T15:32:50;29.00;99.90
31046;DHT22;17711;54.018;9.300;2022-08-19T15:35:22;29.50;99.90
31046;DHT22;17711;54.018;9.300;2022-08-19T15:37:53;29.90;99.90
31046;DHT22;17711;54.018;9.300;2022-08-19T15:40:25;30.10;99.90
31046;DHT22;17711;54.018;9.300;2022-08-19T15:42:54;30.20;97.20
31046;DHT22;17711;54.018;9.300;2022-08-19T15:45:25;30.10;93.10
31046;DHT22;17711;54.018;9.300;2022-08-19T15:47:59;29.90;99.90
31046;DHT22;17711;54.018;9.300;2022-08-19T15:50:29;29.80;94.20
31046;DHT22;17711;54.018;9.300;2022-08-19T15:53:02;29.70;92.30
31046;DHT22;17711;54.018;9.300;2022-08-19T15:55:32;29.50;99.90
31046;DHT22;17711;54.018;9.300;2022-08-19T15:58:02;29.30;90.90
31046;DHT22;17711;54.018;9.300;2022-08-19T16:00:56;29.00;91.50
31046;DHT22;17711;54.018;9.300;2022-08-19T16:03:47;28.80;99.60